Time;durP1;ratioP1;P1;durP2;ratioP2;P2;SDS_P1;SDS_P2;PMS_P1;PMS_P2;Temp;Humidity;BMP_temperature;BMP_pressure;BME280_temperature;BME280_humidity;BME280_pressure;Samples;Min_cycle;Max_cycle;Signal;HPM_P1;HPM_P2
2024/02/26 00:02:08;;;;;;;4.25;3.85;;;6.60;99.90;;;;;;5043743;28;20053;-77
2024/02/26 00:04:34;;;;;;;7.22;4.30;;;6.60;99.90;;;;;;5041611;28;20048;-77
2024/02/26 00:07:03;;;;;;;6.80;4.00;;;6.60;99.90;;;;;;5026014;28;20080;-77
2024/02/26 00:09:30;;;;;;;5.93;3.85;;;6.60;99.90;;;;;;5022123;28;20045;-76
2024/02/26 00:11:57;;;;;;;5.38;4.10;;;6.60;99.90;;;;;;5021431;28;20079;-77
2024/02/26 00:14:24;;;;;;;6.25;4.95;;;6.60;99.90;;;;;;5026612;28;20057;-77
2024/02/26 00:16:51;;;;;;;9.00;5.88;;;6.50;99.90;;;;;;5043508;28;20483;-77
2024/02/26 00:19:18;;;;;;;6.28;3.83;;;6.50;99.90;;;;;;5042507;28;20049;-77
2024/02/26 00:21:45;;;;;;;7.30;4.28;;;6.50;99.90;;;;;;5042112;28;20060;-77
2024/02/26 00:24:12;;;;;;;6.25;3.67;;;6.50;99.90;;;;;;5025916;28;20069;-77
2024/02/26 00:26:39;;;;;;;6.13;3.72;;;6.50;99.90;;;;;;5042266;28;20044;-77
2024/02/26 00:29:06;;;;;;;4.88;2.97;;;6.60;99.90;;;;;;5041843;28;20562;-77
2024/02/26 00:31:33;;;;;;;5.10;3.30;;;6.60;99.90;;;;;;5026004;28;20445;-77
2024/02/26 00:34:00;;;;;;;4.47;2.55;;;6.60;99.90;;;;;;5043483;28;20647;-77
2024/02/26 00:36:27;;;;;;;3.78;2.92;;;6.60;99.90;;;;;;5042189;28;20057;-77
2024/02/26 00:38:54;;;;;;;6.22;3.60;;;6.60;99.90;;;;;;5042885;28;20068;-77
2024/02/26 00:41:22;;;;;;;4.88;3.28;;;6.50;99.90;;;;;;5041046;28;20053;-76
2024/02/26 00:43:49;;;;;;;4.22;2.80;;;6.50;99.90;;;;;;5043123;28;20048;-77
2024/02/26 00:46:16;;;;;;;3.80;3.10;;;6.50;99.90;;;;;;5025280;28;20132;-76
2024/02/26 00:48:43;;;;;;;5.72;4.22;;;6.50;99.90;;;;;;5043100;28;20041;-77
2024/02/26 00:51:10;;;;;;;5.35;3.72;;;6.50;99.90;;;;;;5043641;28;20056;-77
2024/02/26 00:53:37;;;;;;;7.22;3.72;;;6.50;99.90;;;;;;5025419;28;20524;-77
2024/02/26 00:56:04;;;;;;;5.80;3.75;;;6.50;99.90;;;;;;5040149;28;20063;-77
2024/02/26 00:58:31;;;;;;;4.18;3.25;;;6.50;99.90;;;;;;5042406;28;20557;-77
2024/02/26 01:00:58;;;;;;;5.43;4.07;;;6.50;99.90;;;;;;5041597;28;20052;-77
2024/02/26 01:03:25;;;;;;;5.22;4.15;;;6.50;99.90;;;;;;5025322;28;20719;-77
2024/02/26 01:05:52;;;;;;;5.35;4.20;;;6.50;99.90;;;;;;5025060;28;20056;-77
2024/02/26 01:08:24;;;;;;;5.22;3.97;;;6.50;99.90;;;;;;5026332;28;20089;-77
2024/02/26 01:10:51;;;;;;;6.65;4.68;;;6.50;99.90;;;;;;5040371;28;20119;-77
2024/02/26 01:13:18;;;;;;;5.35;3.90;;;6.50;99.90;;;;;;5040646;28;20502;-76
2024/02/26 01:15:45;;;;;;;7.68;5.70;;;6.50;99.90;;;;;;5041636;28;20053;-76
2024/02/26 01:18:12;;;;;;;7.50;5.72;;;6.50;99.90;;;;;;5025488;28;20434;-77
2024/02/26 01:20:39;;;;;;;8.25;5.25;;;6.50;99.90;;;;;;5024713;28;20060;-77
2024/02/26 01:23:06;;;;;;;8.73;5.28;;;6.50;99.90;;;;;;5041842;28;20056;-77
2024/02/26 01:25:33;;;;;;;5.35;3.83;;;6.50;99.90;;;;;;5004323;28;20092;-76
2024/02/26 01:28:00;;;;;;;4.68;4.10;;;6.50;99.90;;;;;;5020919;28;20064;-76
2024/02/26 01:30:27;;;;;;;6.20;5.43;;;6.50;99.90;;;;;;5038187;28;20053;-77
2024/02/26 01:32:54;;;;;;;4.95;4.30;;;6.60;99.90;;;;;;5024779;28;20406;-76
2024/02/26 01:35:21;;;;;;;6.15;5.18;;;6.60;99.90;;;;;;5007870;28;20041;-77
2024/02/26 01:37:48;;;;;;;4.75;4.25;;;6.60;99.90;;;;;;5040746;28;20061;-77
2024/02/26 01:40:19;;;;;;;7.97;4.93;;;6.60;99.90;;;;;;5007927;28;20119;-77
2024/02/26 01:42:46;;;;;;;7.30;5.30;;;6.60;99.90;;;;;;5008654;28;20060;-77
2024/02/26 01:45:15;;;;;;;8.15;5.95;;;6.60;99.90;;;;;;5041356;28;20103;-78
2024/02/26 01:47:43;;;;;;;6.03;5.07;;;6.60;99.90;;;;;;5042948;28;20053;-77
2024/02/26 01:50:13;;;;;;;5.82;4.72;;;6.60;99.90;;;;;;5040866;28;20045;-77
2024/02/26 01:52:40;;;;;;;5.93;5.32;;;6.60;99.90;;;;;;5024434;28;20137;-77
2024/02/26 01:55:08;;;;;;;5.72;4.95;;;6.60;99.90;;;;;;5024153;28;20146;-77
2024/02/26 01:57:34;;;;;;;5.90;4.60;;;6.60;99.90;;;;;;5023272;28;20052;-77
2024/02/26 02:00:05;;;;;;;8.35;5.53;;;6.60;99.90;;;;;;5004789;28;20506;-76
2024/02/26 02:02:32;;;;;;;7.78;5.40;;;6.60;99.90;;;;;;5020358;28;20148;-77
2024/02/26 02:04:59;;;;;;;6.63;4.43;;;6.60;99.90;;;;;;5008390;28;20049;-77
2024/02/26 02:07:26;;;;;;;8.27;4.72;;;6.60;99.90;;;;;;5024382;28;20057;-77
2024/02/26 02:09:53;;;;;;;7.50;5.18;;;6.60;99.90;;;;;;5020785;28;20054;-77
2024/02/26 02:12:21;;;;;;;7.60;5.30;;;6.60;99.90;;;;;;5002703;28;20051;-77
2024/02/26 02:14:48;;;;;;;5.68;4.90;;;6.70;99.90;;;;;;5023561;28;20059;-77
2024/02/26 02:17:15;;;;;;;7.57;5.00;;;6.60;99.90;;;;;;5007257;28;20517;-76
2024/02/26 02:19:41;;;;;;;5.40;4.85;;;6.60;99.90;;;;;;5020155;28;20049;-77
2024/02/26 02:22:08;;;;;;;5.57;4.15;;;6.70;99.90;;;;;;5004115;28;20843;-77
2024/02/26 02:24:35;;;;;;;5.57;4.68;;;6.60;99.90;;;;;;5004714;28;20182;-79
2024/02/26 02:27:02;;;;;;;8.50;5.43;;;6.60;99.90;;;;;;5038922;28;20052;-76
2024/02/26 02:29:29;;;;;;;6.38;5.13;;;6.70;99.90;;;;;;4998482;28;20136;-77
2024/02/26 02:31:56;;;;;;;8.15;6.22;;;6.60;99.90;;;;;;5014157;28;20042;-77
2024/02/26 02:34:23;;;;;;;7.35;5.10;;;6.60;99.90;;;;;;4988858;28;20053;-77
2024/02/26 02:36:53;;;;;;;7.13;5.82;;;6.60;99.90;;;;;;5039580;28;20049;-77
2024/02/26 02:39:20;;;;;;;5.95;4.15;;;6.60;99.90;;;;;;5001435;28;20064;-77
2024/02/26 02:41:48;;;;;;;6.82;4.03;;;6.60;99.90;;;;;;5004331;28;20068;-76
2024/02/26 02:44:14;;;;;;;5.65;4.28;;;6.70;99.90;;;;;;5021444;28;20045;-77
2024/02/26 02:46:41;;;;;;;8.38;5.07;;;6.70;99.90;;;;;;5021434;28;20067;-76
2024/02/26 02:49:10;;;;;;;4.85;4.35;;;6.60;99.90;;;;;;5039048;28;20064;-77
2024/02/26 02:51:37;;;;;;;7.60;5.32;;;6.70;99.90;;;;;;5015436;28;20570;-77
2024/02/26 02:54:04;;;;;;;8.43;5.53;;;6.70;99.90;;;;;;5038953;28;20523;-77
2024/02/26 02:56:31;;;;;;;7.88;4.78;;;6.60;99.90;;;;;;5020386;28;20050;-77
2024/02/26 02:58:58;;;;;;;6.35;4.65;;;6.60;99.90;;;;;;5009440;28;20121;-77
2024/02/26 03:01:24;;;;;;;6.65;4.10;;;6.60;99.90;;;;;;5008770;28;20053;-77
2024/02/26 03:03:51;;;;;;;5.00;4.15;;;6.60;99.90;;;;;;5021014;28;20736;-77
2024/02/26 03:06:20;;;;;;;5.10;4.55;;;6.60;99.90;;;;;;5035934;28;20057;-77
2024/02/26 03:08:47;;;;;;;5.78;3.65;;;6.60;99.90;;;;;;5008869;28;20051;-77
2024/02/26 03:11:15;;;;;;;6.50;4.78;;;6.60;99.90;;;;;;5040199;28;20045;-77
2024/02/26 03:13:42;;;;;;;5.95;3.67;;;6.60;99.90;;;;;;5020817;28;20054;-77
2024/02/26 03:16:09;;;;;;;5.90;3.63;;;6.60;99.90;;;;;;5033837;28;20053;-77
2024/02/26 03:18:36;;;;;;;5.97;3.75;;;6.60;99.90;;;;;;5040641;28;20102;-77
2024/02/26 03:21:03;;;;;;;5.13;3.58;;;6.60;99.90;;;;;;5024035;28;20086;-77
2024/02/26 03:23:31;;;;;;;4.13;3.25;;;6.60;99.90;;;;;;5024684;28;20117;-77
2024/02/26 03:25:58;;;;;;;6.35;3.85;;;6.60;99.90;;;;;;5023049;28;20103;-77
2024/02/26 03:28:25;;;;;;;5.85;3.67;;;6.60;99.90;;;;;;5041885;28;20081;-77
2024/02/26 03:30:52;;;;;;;5.10;4.22;;;6.60;99.90;;;;;;5020768;28;20080;-77
2024/02/26 03:33:18;;;;;;;7.30;3.33;;;6.60;99.90;;;;;;5032177;28;20049;-77
2024/02/26 03:35:45;;;;;;;5.28;3.65;;;6.60;99.90;;;;;;5043513;28;20045;-77
2024/02/26 03:38:13;;;;;;;4.80;3.15;;;6.60;99.90;;;;;;5044826;28;20059;-77
2024/02/26 03:40:40;;;;;;;7.28;4.20;;;6.60;99.90;;;;;;5043909;28;20481;-77
2024/02/26 03:43:07;;;;;;;11.00;5.95;;;6.60;99.90;;;;;;5045042;28;20092;-77
2024/02/26 03:45:34;;;;;;;6.75;4.35;;;6.60;99.90;;;;;;5044701;28;20057;-77
2024/02/26 03:48:01;;;;;;;6.20;4.00;;;6.60;99.90;;;;;;5044707;28;20045;-77
2024/02/26 03:50:28;;;;;;;6.82;3.97;;;6.60;99.90;;;;;;5027820;28;20421;-77
2024/02/26 03:52:55;;;;;;;6.68;3.97;;;6.60;99.90;;;;;;5008448;28;20136;-77
2024/02/26 03:55:24;;;;;;;5.28;3.85;;;6.50;99.90;;;;;;5013986;28;20136;-77
2024/02/26 03:57:52;;;;;;;6.43;3.88;;;6.50;99.90;;;;;;5012165;28;20275;-76
2024/02/26 04:00:19;;;;;;;6.50;4.38;;;6.50;99.90;;;;;;5008210;28;20049;-77
2024/02/26 04:02:49;;;;;;;5.68;4.38;;;6.50;99.90;;;;;;5031604;28;20057;-77
2024/02/26 04:05:16;;;;;;;4.60;3.63;;;6.50;99.90;;;;;;5044620;28;20045;-77
2024/02/26 04:07:43;;;;;;;5.32;3.10;;;6.50;99.90;;;;;;5011659;28;20102;-77
2024/02/26 04:10:10;;;;;;;6.32;4.03;;;6.50;99.90;;;;;;5027393;28;20051;-77
2024/02/26 04:12:41;;;;;;;4.85;3.70;;;6.50;99.90;;;;;;5026742;28;20048;-78
2024/02/26 04:15:09;;;;;;;7.15;3.38;;;6.50;99.90;;;;;;5044555;28;20053;-77
2024/02/26 04:17:36;;;;;;;7.00;3.67;;;6.50;99.90;;;;;;5043712;28;20078;-77
2024/02/26 04:20:05;;;;;;;4.32;3.55;;;6.50;99.90;;;;;;5007788;28;20382;-78
2024/02/26 04:22:33;;;;;;;5.93;3.78;;;6.40;99.90;;;;;;5023996;28;20682;-77
2024/02/26 04:24:59;;;;;;;7.85;3.25;;;6.50;99.90;;;;;;5027628;28;20045;-77
2024/02/26 04:27:26;;;;;;;4.80;3.28;;;6.40;99.90;;;;;;5009866;28;20084;-77
2024/02/26 04:29:53;;;;;;;5.85;3.40;;;6.40;99.90;;;;;;5027362;28;20550;-77
2024/02/26 04:32:20;;;;;;;5.07;2.97;;;6.40;99.90;;;;;;5027288;28;20045;-78
2024/02/26 04:34:47;;;;;;;4.13;3.33;;;6.40;99.90;;;;;;5011606;28;20582;-77
2024/02/26 04:37:14;;;;;;;5.70;2.90;;;6.40;99.90;;;;;;5027485;28;20064;-77
2024/02/26 04:39:42;;;;;;;4.63;2.88;;;6.40;99.90;;;;;;5027091;28;20103;-77
2024/02/26 04:42:09;;;;;;;5.18;2.90;;;6.40;99.90;;;;;;5026196;28;20107;-77
2024/02/26 04:44:36;;;;;;;4.80;3.00;;;6.40;99.90;;;;;;5011220;28;20063;-77
2024/02/26 04:47:03;;;;;;;4.05;2.45;;;6.40;99.90;;;;;;5022488;28;20124;-77
2024/02/26 04:49:30;;;;;;;5.07;2.70;;;6.40;99.90;;;;;;5032081;28;20057;-77
2024/02/26 04:51:58;;;;;;;7.10;2.95;;;6.40;99.90;;;;;;5010718;28;20049;-77
2024/02/26 04:54:25;;;;;;;6.70;3.40;;;6.40;99.90;;;;;;5023567;28;20061;-77
2024/02/26 04:56:52;;;;;;;4.82;2.80;;;6.40;99.90;;;;;;5020888;28;20423;-77
2024/02/26 04:59:19;;;;;;;4.95;2.78;;;6.40;99.90;;;;;;5010383;28;20219;-77
2024/02/26 05:01:46;;;;;;;4.68;2.67;;;6.40;99.90;;;;;;5022774;28;20645;-77
2024/02/26 05:04:13;;;;;;;3.58;2.10;;;6.40;99.90;;;;;;5041475;28;20049;-77
2024/02/26 05:06:40;;;;;;;6.90;3.55;;;6.40;99.90;;;;;;5042601;28;20067;-77
2024/02/26 05:09:07;;;;;;;7.25;3.45;;;6.40;99.90;;;;;;5022931;28;20448;-76
2024/02/26 05:11:35;;;;;;;5.35;2.45;;;6.30;99.90;;;;;;5022028;28;20288;-77
2024/02/26 05:14:02;;;;;;;3.17;2.30;;;6.40;99.90;;;;;;5039687;28;20641;-77
2024/02/26 05:16:30;;;;;;;5.78;2.40;;;6.40;99.90;;;;;;5042860;28;20060;-78
2024/02/26 05:18:59;;;;;;;2.83;2.10;;;6.40;99.90;;;;;;5019580;28;20056;-77
2024/02/26 05:21:26;;;;;;;6.07;2.50;;;6.40;99.90;;;;;;5044477;28;20124;-77
2024/02/26 05:23:53;;;;;;;4.03;2.60;;;6.40;99.90;;;;;;5022643;28;20080;-77
2024/02/26 05:26:23;;;;;;;7.75;2.50;;;6.40;99.90;;;;;;5022220;28;20087;-77
2024/02/26 05:28:50;;;;;;;4.40;2.58;;;6.40;99.90;;;;;;5041347;28;20791;-77
2024/02/26 05:31:18;;;;;;;4.80;2.20;;;6.30;99.90;;;;;;5026749;28;20118;-77
2024/02/26 05:33:45;;;;;;;2.55;2.00;;;6.40;99.90;;;;;;5025701;28;20057;-77
2024/02/26 05:36:21;;;;;;;3.47;2.13;;;6.30;99.90;;;;;;5029930;28;20511;-77
2024/02/26 05:38:49;;;;;;;4.20;2.80;;;6.40;99.90;;;;;;5008722;28;20087;-77
2024/02/26 05:41:16;;;;;;;5.45;2.28;;;6.40;99.90;;;;;;5025563;28;20045;-77
2024/02/26 05:43:43;;;;;;;4.32;1.83;;;6.40;99.90;;;;;;5043047;28;20061;-77
2024/02/26 05:46:10;;;;;;;5.57;1.90;;;6.40;99.90;;;;;;5042182;28;20049;-78
2024/02/26 05:48:37;;;;;;;3.45;2.40;;;6.40;99.90;;;;;;5043451;28;20072;-78
2024/02/26 05:51:04;;;;;;;4.75;2.20;;;6.40;99.90;;;;;;5025606;28;20077;-78
2024/02/26 05:53:31;;;;;;;5.55;2.20;;;6.40;99.90;;;;;;5005219;28;20552;-78
2024/02/26 05:55:58;;;;;;;2.50;1.83;;;6.40;99.90;;;;;;5033601;28;20143;-78
2024/02/26 05:58:25;;;;;;;3.08;1.70;;;6.40;99.90;;;;;;5005086;28;20665;-77
2024/02/26 06:00:52;;;;;;;4.38;2.40;;;6.40;99.90;;;;;;5031950;28;20056;-78
2024/02/26 06:03:19;;;;;;;4.55;2.00;;;6.40;99.90;;;;;;5023466;28;20471;-78
2024/02/26 06:05:46;;;;;;;3.15;1.92;;;6.40;99.90;;;;;;5009832;28;20053;-78
2024/02/26 06:08:13;;;;;;;3.35;1.60;;;6.30;99.90;;;;;;5019835;28;20051;-77
2024/02/26 06:10:40;;;;;;;2.75;1.75;;;6.40;99.90;;;;;;5020300;28;20540;-78
2024/02/26 06:13:07;;;;;;;4.68;1.95;;;6.40;99.90;;;;;;5020307;28;20151;-78
2024/02/26 06:15:34;;;;;;;3.05;1.60;;;6.30;99.90;;;;;;5026578;28;20056;-78
2024/02/26 06:18:01;;;;;;;4.32;1.83;;;6.30;99.90;;;;;;5027571;28;20587;-78
2024/02/26 06:20:28;;;;;;;3.85;1.42;;;6.30;99.90;;;;;;5020113;28;20053;-78
2024/02/26 06:22:55;;;;;;;3.58;1.80;;;6.30;99.90;;;;;;5030960;28;20059;-78
2024/02/26 06:25:22;;;;;;;5.43;3.35;;;6.20;99.90;;;;;;5009725;28;20055;-78
2024/02/26 06:27:49;;;;;;;4.45;2.03;;;6.20;99.90;;;;;;5029116;28;20107;-78
2024/02/26 06:30:16;;;;;;;3.55;1.83;;;6.20;99.90;;;;;;5028779;28;20049;-78
2024/02/26 06:32:43;;;;;;;3.65;1.63;;;6.20;99.90;;;;;;4990250;28;20061;-77
2024/02/26 06:35:11;;;;;;;5.93;1.60;;;6.20;99.90;;;;;;5030133;28;20052;-77
2024/02/26 06:37:39;;;;;;;2.70;1.48;;;6.20;99.90;;;;;;5022028;28;20053;-78
2024/02/26 06:40:07;;;;;;;3.00;1.40;;;6.10;99.90;;;;;;4998169;28;20053;-77
2024/02/26 06:42:34;;;;;;;3.30;1.30;;;6.10;99.90;;;;;;5015529;28;20211;-77
2024/02/26 06:45:01;;;;;;;1.60;1.02;;;6.10;99.90;;;;;;5008260;28;20081;-78
2024/02/26 06:47:28;;;;;;;3.92;1.40;;;6.10;99.90;;;;;;5027728;28;20049;-78
2024/02/26 06:49:58;;;;;;;5.30;2.20;;;6.10;99.90;;;;;;5031844;28;20407;-78
2024/02/26 06:52:25;;;;;;;3.58;1.60;;;6.10;99.90;;;;;;5024165;28;20091;-77
2024/02/26 06:54:52;;;;;;;4.93;1.88;;;6.10;99.90;;;;;;5031657;28;20139;-78
2024/02/26 06:57:20;;;;;;;4.18;1.50;;;6.10;99.90;;;;;;5005062;28;20049;-78
2024/02/26 06:59:48;;;;;;;4.25;1.52;;;6.00;99.90;;;;;;5009814;28;20072;-77
2024/02/26 07:02:16;;;;;;;4.30;1.30;;;6.00;99.90;;;;;;4993458;28;20057;-77
2024/02/26 07:04:43;;;;;;;3.50;1.17;;;6.00;99.90;;;;;;5038960;28;20045;-77
2024/02/26 07:07:10;;;;;;;4.63;1.38;;;6.00;99.90;;;;;;5016320;28;20095;-77
2024/02/26 07:09:37;;;;;;;3.40;1.33;;;6.00;99.90;;;;;;5001685;28;20049;-77
2024/02/26 07:12:04;;;;;;;5.60;0.90;;;6.00;99.90;;;;;;4997730;28;20083;-78
2024/02/26 07:14:32;;;;;;;2.38;1.10;;;6.00;99.90;;;;;;5002792;28;20060;-83
2024/02/26 07:16:59;;;;;;;4.63;1.67;;;6.00;99.90;;;;;;5023976;28;20379;-76
2024/02/26 07:19:26;;;;;;;4.97;1.65;;;6.00;99.90;;;;;;5027685;28;20045;-76
2024/02/26 07:21:53;;;;;;;4.28;1.15;;;6.00;99.90;;;;;;5026429;28;20048;-76
2024/02/26 07:24:20;;;;;;;2.45;1.10;;;6.00;99.90;;;;;;5026955;28;20060;-76
2024/02/26 07:26:47;;;;;;;3.78;1.10;;;6.00;99.90;;;;;;5011225;28;20198;-82
2024/02/26 07:29:14;;;;;;;1.92;1.00;;;5.90;99.90;;;;;;5010130;28;20045;-83
2024/02/26 07:31:41;;;;;;;2.25;1.00;;;6.00;99.90;;;;;;5023301;28;20441;-83
2024/02/26 07:34:09;;;;;;;3.28;1.00;;;6.00;99.90;;;;;;5003495;28;20735;-81
2024/02/26 07:36:36;;;;;;;4.95;1.40;;;5.90;99.90;;;;;;5035181;28;20072;-82
2024/02/26 07:39:03;;;;;;;3.10;0.90;;;5.90;99.90;;;;;;5001354;28;20050;-81
2024/02/26 07:41:31;;;;;;;2.80;1.02;;;5.90;99.90;;;;;;5000096;28;20141;-82
2024/02/26 07:43:59;;;;;;;3.80;1.10;;;5.90;99.90;;;;;;5016605;28;20053;-85
2024/02/26 07:46:26;;;;;;;4.38;1.10;;;5.90;99.90;;;;;;4997610;28;20045;-85
2024/02/26 07:48:53;;;;;;;3.78;1.35;;;5.90;99.90;;;;;;5033289;28;20155;-80
2024/02/26 07:51:20;;;;;;;1.80;0.95;;;6.00;99.90;;;;;;5007585;28;20056;-80
2024/02/26 07:53:47;;;;;;;2.20;1.00;;;6.00;99.90;;;;;;5025050;28;20056;-80
2024/02/26 07:56:14;;;;;;;2.00;0.90;;;6.00;99.90;;;;;;5034253;28;20051;-79
2024/02/26 07:58:40;;;;;;;1.98;0.98;;;6.00;99.90;;;;;;5024815;28;20132;-77
2024/02/26 08:01:07;;;;;;;1.92;0.85;;;6.00;99.90;;;;;;5021857;28;20116;-78
2024/02/26 08:03:34;;;;;;;3.80;1.70;;;6.00;99.90;;;;;;5008217;28;20084;-78
2024/02/26 08:06:01;;;;;;;2.95;1.00;;;6.00;99.90;;;;;;5016704;28;20053;-79
2024/02/26 08:08:29;;;;;;;2.53;1.15;;;6.00;99.90;;;;;;5023901;28;20060;-79
2024/02/26 08:10:57;;;;;;;1.30;0.90;;;6.10;99.90;;;;;;5026097;28;20049;-81
2024/02/26 08:13:24;;;;;;;1.33;1.00;;;6.10;99.90;;;;;;5040475;28;20041;-80
2024/02/26 08:15:51;;;;;;;2.22;0.95;;;6.10;99.90;;;;;;4997508;28;20073;-80
2024/02/26 08:18:19;;;;;;;1.95;1.10;;;6.20;99.90;;;;;;4999741;28;20041;-80
2024/02/26 08:20:46;;;;;;;2.15;0.90;;;6.20;99.90;;;;;;5022825;28;20051;-80
2024/02/26 08:23:13;;;;;;;3.00;1.10;;;6.20;99.90;;;;;;5017959;28;20056;-80
2024/02/26 08:25:40;;;;;;;2.47;1.00;;;6.20;99.90;;;;;;5026143;28;20061;-80
2024/02/26 08:28:07;;;;;;;2.90;1.15;;;6.20;99.90;;;;;;5028060;28;20130;-80
2024/02/26 08:30:34;;;;;;;1.95;0.98;;;6.30;99.90;;;;;;5010835;28;20044;-81
2024/02/26 08:33:01;;;;;;;2.13;0.90;;;6.30;99.90;;;;;;5025030;28;20498;-81
2024/02/26 08:35:28;;;;;;;1.70;1.10;;;6.40;99.90;;;;;;5023793;28;20054;-80
2024/02/26 08:37:55;;;;;;;3.72;1.10;;;6.40;99.90;;;;;;5037196;28;20129;-81
2024/02/26 08:40:22;;;;;;;1.65;1.00;;;6.40;99.90;;;;;;5032498;28;20044;-80
2024/02/26 08:42:49;;;;;;;1.40;0.85;;;6.50;99.90;;;;;;5026678;28;20150;-81
2024/02/26 08:45:16;;;;;;;2.33;0.98;;;6.50;99.90;;;;;;5023967;28;20052;-80
2024/02/26 08:47:45;;;;;;;2.22;0.80;;;6.50;99.90;;;;;;5024982;28;20099;-81
2024/02/26 08:50:13;;;;;;;2.03;0.88;;;6.50;99.90;;;;;;5007015;28;20376;-81
2024/02/26 08:52:41;;;;;;;1.13;0.80;;;6.50;99.90;;;;;;5004407;28;20050;-81
2024/02/26 08:55:08;;;;;;;2.33;1.00;;;6.50;99.90;;;;;;4994460;28;20072;-80
2024/02/26 08:57:35;;;;;;;3.15;0.93;;;6.50;99.90;;;;;;5023825;28;20046;-81
2024/02/26 09:00:02;;;;;;;3.90;1.23;;;6.50;99.90;;;;;;5020322;28;20045;-81
2024/02/26 09:02:30;;;;;;;2.60;1.00;;;6.60;99.90;;;;;;5019258;28;20052;-80
2024/02/26 09:04:57;;;;;;;2.58;1.00;;;6.60;99.90;;;;;;5015216;28;20053;-79
2024/02/26 09:07:24;;;;;;;3.00;1.13;;;6.60;99.90;;;;;;5002570;28;20068;-79
2024/02/26 09:09:51;;;;;;;2.78;1.30;;;6.50;99.90;;;;;;4992544;28;20060;-80
2024/02/26 09:12:19;;;;;;;4.72;1.35;;;6.50;99.90;;;;;;5005514;28;20111;-80
2024/02/26 09:14:46;;;;;;;2.05;1.08;;;6.50;99.90;;;;;;4992550;28;20479;-80
2024/02/26 09:17:13;;;;;;;2.90;1.52;;;6.40;99.90;;;;;;5027968;28;20213;-80
2024/02/26 09:19:42;;;;;;;2.83;1.63;;;6.50;99.90;;;;;;5009913;28;20045;-79
2024/02/26 09:22:09;;;;;;;5.57;2.42;;;6.60;99.90;;;;;;5011945;28;20556;-81
2024/02/26 09:24:36;;;;;;;2.22;1.35;;;6.60;99.90;;;;;;5016390;28;20108;-89
2024/02/26 09:27:04;;;;;;;3.63;1.52;;;6.50;99.90;;;;;;5025799;28;20145;-86
2024/02/26 09:29:35;;;;;;;3.10;1.35;;;6.60;99.90;;;;;;5038555;28;20922;-86
2024/02/26 09:32:05;;;;;;;3.00;1.10;;;6.60;99.90;;;;;;5030863;28;20088;-85
2024/02/26 09:34:33;;;;;;;3.53;0.90;;;6.60;99.90;;;;;;5027959;28;20056;-85
2024/02/26 09:37:01;;;;;;;2.08;1.20;;;6.70;99.90;;;;;;5028440;28;20053;-86
2024/02/26 09:39:41;;;;;;;7.10;2.45;;;6.70;99.90;;;;;;5029053;28;20061;-88
2024/02/26 09:42:11;;;;;;;2.92;1.27;;;6.70;99.90;;;;;;5030510;28;20096;-89
2024/02/26 09:44:41;;;;;;;1.95;0.98;;;6.70;99.90;;;;;;5021605;28;20065;-88
2024/02/26 09:47:13;;;;;;;3.30;1.25;;;6.80;99.90;;;;;;5003237;28;20051;-79
2024/02/26 09:49:41;;;;;;;;;;;6.80;99.90;;;;;;5019236;28;20076;-78
2024/02/26 09:52:09;;;;;;;2.45;1.02;;;6.90;99.90;;;;;;5036984;28;19931;-78
2024/02/26 09:54:36;;;;;;;1.48;1.00;;;6.90;99.90;;;;;;5018003;28;20053;-79
2024/02/26 09:57:06;;;;;;;1.92;0.90;;;6.90;99.90;;;;;;5034838;28;20073;-80
2024/02/26 09:59:38;;;;;;;2.33;0.80;;;7.00;99.90;;;;;;4991732;28;20107;-78
2024/02/26 10:02:09;;;;;;;2.92;1.10;;;7.00;99.90;;;;;;5014805;28;20135;-78
2024/02/26 10:04:36;;;;;;;1.35;1.02;;;6.90;99.90;;;;;;5037647;28;20060;-78
2024/02/26 10:07:04;;;;;;;2.92;1.05;;;7.00;99.90;;;;;;5010267;28;20056;-80
2024/02/26 10:09:31;;;;;;;2.42;1.13;;;7.10;99.90;;;;;;5026093;28;20063;-80
2024/02/26 10:11:59;;;;;;;3.67;1.20;;;7.10;99.90;;;;;;5006018;28;20060;-80
2024/02/26 10:14:26;;;;;;;1.85;1.20;;;7.10;99.90;;;;;;4998689;28;20553;-80
2024/02/26 10:16:53;;;;;;;3.00;1.58;;;7.10;99.90;;;;;;5034985;28;20074;-79
2024/02/26 10:19:27;;;;;;;2.42;1.50;;;7.20;99.90;;;;;;5030784;28;20100;-79
2024/02/26 10:22:00;;;;;;;4.30;1.58;;;7.10;99.90;;;;;;5021952;28;20049;-80
2024/02/26 10:24:28;;;;;;;3.50;1.30;;;7.20;99.90;;;;;;5018553;28;20063;-80
2024/02/26 10:26:55;;;;;;;5.55;1.00;;;7.10;99.90;;;;;;5019178;28;20138;-80
2024/02/26 10:29:24;;;;;;;2.55;1.00;;;7.10;99.90;;;;;;5002901;28;20451;-80
2024/02/26 10:31:51;;;;;;;3.58;0.98;;;7.10;99.90;;;;;;4987674;28;20503;-79
2024/02/26 10:34:18;;;;;;;3.20;1.30;;;7.20;99.90;;;;;;5024910;28;20051;-83
2024/02/26 10:36:46;;;;;;;1.88;1.10;;;7.10;99.90;;;;;;5022851;28;20578;-83
2024/02/26 10:39:20;;;;;;;2.53;1.10;;;7.10;99.90;;;;;;5008480;28;20049;-84
2024/02/26 10:41:48;;;;;;;2.10;1.15;;;7.00;99.90;;;;;;5006666;28;20059;-83
2024/02/26 10:44:15;;;;;;;4.60;1.40;;;7.00;99.90;;;;;;5002758;28;20072;-83
2024/02/26 10:46:47;;;;;;;3.35;1.10;;;7.00;99.90;;;;;;5001816;28;20056;-82
2024/02/26 10:49:19;;;;;;;2.33;0.90;;;7.00;99.90;;;;;;5021601;28;20049;-82
2024/02/26 10:51:57;;;;;;;1.70;0.90;;;6.90;99.90;;;;;;5042596;28;20052;-85
2024/02/26 10:54:25;;;;;;;1.80;0.80;;;6.90;99.90;;;;;;5011097;28;20156;-83
2024/02/26 10:56:53;;;;;;;1.42;0.85;;;6.90;99.90;;;;;;5016812;28;20053;-84
2024/02/26 10:59:20;;;;;;;2.42;1.10;;;7.00;99.90;;;;;;5010922;28;20048;-84
2024/02/26 11:01:49;;;;;;;2.70;0.90;;;7.00;99.90;;;;;;5002574;28;20085;-84
2024/02/26 11:04:17;;;;;;;3.45;1.25;;;7.00;99.90;;;;;;5008286;28;20075;-83
2024/02/26 11:06:45;;;;;;;4.75;1.40;;;7.00;99.90;;;;;;4999783;28;20045;-83
2024/02/26 11:09:13;;;;;;;2.35;0.80;;;7.00;99.90;;;;;;5024734;28;20091;-83
2024/02/26 11:11:40;;;;;;;1.95;0.88;;;7.10;99.90;;;;;;5009435;28;20037;-83
2024/02/26 11:14:09;;;;;;;6.85;2.53;;;7.10;99.90;;;;;;5004058;28;20095;-83
2024/02/26 11:16:36;;;;;;;2.08;0.98;;;7.10;99.90;;;;;;5019236;28;20107;-83
2024/02/26 11:19:03;;;;;;;1.73;0.80;;;7.10;99.90;;;;;;5012455;28;20503;-83
2024/02/26 11:21:38;;;;;;;1.48;0.85;;;7.10;99.90;;;;;;5010117;28;20111;-84
2024/02/26 11:24:12;;;;;;;1.35;0.80;;;7.10;99.90;;;;;;5024235;28;20060;-83
2024/02/26 11:26:48;;;;;;;3.00;0.90;;;7.20;99.90;;;;;;5038239;28;20152;-83
2024/02/26 11:29:17;;;;;;;1.75;0.90;;;7.20;99.90;;;;;;5020148;28;20289;-82
2024/02/26 11:31:44;;;;;;;2.05;0.82;;;7.20;99.90;;;;;;5025259;28;20149;-83
2024/02/26 11:34:10;;;;;;;1.85;1.00;;;7.20;99.90;;;;;;4995276;28;20515;-83
2024/02/26 11:36:39;;;;;;;3.72;1.20;;;7.30;99.90;;;;;;5013764;28;20060;-83
2024/02/26 11:39:06;;;;;;;1.75;1.13;;;7.30;99.90;;;;;;5028064;28;20061;-83
2024/02/26 11:41:33;;;;;;;3.65;0.77;;;7.30;99.90;;;;;;5024927;28;20045;-83
2024/02/26 11:44:06;;;;;;;2.67;1.10;;;7.30;99.90;;;;;;5009007;28;20048;-83
2024/02/26 11:46:43;;;;;;;1.70;0.90;;;7.30;99.90;;;;;;5022129;28;20060;-83
2024/02/26 11:49:30;;;;;;;3.35;1.20;;;7.40;99.90;;;;;;5011835;28;20045;-82
2024/02/26 11:52:03;;;;;;;3.20;0.95;;;7.40;99.90;;;;;;5038995;28;20045;-83
2024/02/26 11:54:45;;;;;;;6.55;1.45;;;7.40;99.90;;;;;;5000270;28;20057;-84
2024/02/26 11:57:38;;;;;;;5.82;1.40;;;7.40;99.90;;;;;;5027977;28;20053;-83
2024/02/26 12:00:12;;;;;;;2.30;0.82;;;7.40;99.90;;;;;;5015690;28;20541;-82
2024/02/26 12:02:43;;;;;;;1.55;0.77;;;7.40;99.90;;;;;;5013813;28;20049;-83
2024/02/26 12:05:16;;;;;;;2.42;1.25;;;7.40;99.90;;;;;;5033054;28;20143;-84
2024/02/26 12:07:47;;;;;;;;;;;7.40;99.90;;;;;;5043386;28;20056;-83
2024/02/26 12:10:40;;;;;;;3.55;0.90;;;7.50;99.90;;;;;;5026019;28;19925;-84
2024/02/26 12:13:16;;;;;;;1.13;0.60;;;7.60;99.90;;;;;;5027326;28;20063;-83
2024/02/26 12:15:57;;;;;;;1.50;0.80;;;7.60;99.90;;;;;;5001870;28;20045;-83
2024/02/26 12:18:24;;;;;;;1.88;0.70;;;7.70;99.90;;;;;;5025264;28;20052;-83
2024/02/26 12:21:01;;;;;;;1.73;0.80;;;7.70;99.90;;;;;;5003217;28;20060;-84
2024/02/26 12:23:28;;;;;;;1.23;0.68;;;7.70;99.90;;;;;;5001731;28;20109;-82
2024/02/26 12:26:01;;;;;;;2.33;1.17;;;7.80;99.90;;;;;;5012999;28;20045;-86
2024/02/26 12:28:32;;;;;;;1.77;0.90;;;7.90;99.90;;;;;;5038100;28;20512;-90
2024/02/26 12:30:59;;;;;;;1.45;0.70;;;8.00;99.90;;;;;;5006362;28;20046;-80
2024/02/26 12:33:27;;;;;;;2.88;1.00;;;8.10;99.90;;;;;;5024972;28;20437;-83
2024/02/26 12:35:54;;;;;;;2.70;1.10;;;8.10;99.90;;;;;;5004815;28;20057;-82
2024/02/26 12:38:21;;;;;;;4.30;2.28;;;8.10;99.90;;;;;;5024092;28;20057;-82
2024/02/26 12:40:49;;;;;;;2.97;1.30;;;8.20;99.90;;;;;;5014469;28;20152;-81
2024/02/26 12:43:16;;;;;;;2.88;1.77;;;8.10;99.90;;;;;;5028673;28;20059;-82
2024/02/26 12:45:45;;;;;;;3.33;1.92;;;8.10;99.90;;;;;;5016197;28;20096;-81
2024/02/26 12:48:12;;;;;;;2.13;0.90;;;8.10;99.90;;;;;;5005216;28;20625;-81
2024/02/26 12:50:39;;;;;;;1.52;0.90;;;8.00;99.90;;;;;;5000587;28;20049;-82
2024/02/26 12:53:07;;;;;;;3.05;0.90;;;7.90;99.90;;;;;;5013616;28;20140;-82
2024/02/26 12:55:36;;;;;;;3.47;1.00;;;7.80;99.90;;;;;;5027136;28;20492;-83
2024/02/26 12:58:03;;;;;;;1.15;0.98;;;7.90;99.90;;;;;;5009441;28;20063;-82
2024/02/26 13:00:30;;;;;;;1.38;0.90;;;8.00;99.90;;;;;;5003829;28;20053;-82
2024/02/26 13:02:57;;;;;;;1.63;0.70;;;8.10;99.90;;;;;;5015234;28;20076;-82